sensor_id;sensor_type;location;lat;lon;timestamp;pressure;altitude;pressure_sealevel;temperature;humidity
55687;BME280;41911;52.362;4.978;2023-04-25T00:00:12;101124.65;;;6.55;50.49
55687;BME280;41911;52.362;4.978;2023-04-25T00:00:43;101127.89;;;6.13;50.25
55687;BME280;41911;52.362;4.978;2023-04-25T00:01:14;101123.45;;;6.45;49.56
55687;BME280;41911;52.362;4.978;2023-04-25T00:01:46;101123.42;;;6.43;49.74
55687;BME280;41911;52.362;4.978;2023-04-25T00:02:17;101122.26;;;6.23;49.57
55687;BME280;41911;52.362;4.978;2023-04-25T00:02:48;101127.03;;;6.10;49.12
55687;BME280;41911;52.362;4.978;2023-04-25T00:03:19;101125.28;;;6.26;49.64
55687;BME280;41911;52.362;4.978;2023-04-25T00:03:50;101124.87;;;6.29;49.53
55687;BME280;41911;52.362;4.978;2023-04-25T00:04:21;101123.53;;;6.76;49.63
55687;BME280;41911;52.362;4.978;2023-04-25T00:04:52;101124.73;;;6.03;49.84
55687;BME280;41911;52.362;4.978;2023-04-25T00:05:23;101126.25;;;6.08;51.26
55687;BME280;41911;52.362;4.978;2023-04-25T00:05:54;101126.02;;;6.31;50.29
55687;BME280;41911;52.362;4.978;2023-04-25T00:06:25;101125.91;;;6.22;49.75
55687;BME280;41911;52.362;4.978;2023-04-25T00:06:56;101125.67;;;6.22;50.44
55687;BME280;41911;52.362;4.978;2023-04-25T00:07:27;101125.76;;;6.25;50.86
55687;BME280;41911;52.362;4.978;2023-04-25T00:07:58;101126.86;;;6.14;50.94
55687;BME280;41911;52.362;4.978;2023-04-25T00:08:29;101127.95;;;5.74;51.38
55687;BME280;41911;52.362;4.978;2023-04-25T00:09:00;101126.64;;;6.11;50.35
55687;BME280;41911;52.362;4.978;2023-04-25T00:09:32;101127.51;;;6.37;50.23
55687;BME280;41911;52.362;4.978;2023-04-25T00:10:03;101128.21;;;6.16;49.57
55687;BME280;41911;52.362;4.978;2023-04-25T00:10:34;101127.15;;;6.41;50.09
55687;BME280;41911;52.362;4.978;2023-04-25T00:11:06;101128.40;;;6.64;50.04
55687;BME280;41911;52.362;4.978;2023-04-25T00:11:37;101126.05;;;6.46;50.06
55687;BME280;41911;52.362;4.978;2023-04-25T00:12:09;101126.85;;;6.49;49.68
55687;BME280;41911;52.362;4.978;2023-04-25T00:12:40;101127.39;;;6.35;50.04
55687;BME280;41911;52.362;4.978;2023-04-25T00:13:11;101129.51;;;6.49;50.20
55687;BME280;41911;52.362;4.978;2023-04-25T00:13:42;101125.93;;;6.46;49.83
55687;BME280;41911;52.362;4.978;2023-04-25T00:14:13;101129.27;;;6.55;49.89
55687;BME280;41911;52.362;4.978;2023-04-25T00:14:44;101128.87;;;6.40;50.17
55687;BME280;41911;52.362;4.978;2023-04-25T00:15:15;101128.09;;;6.17;49.85
55687;BME280;41911;52.362;4.978;2023-04-25T00:15:46;101128.24;;;6.29;50.29
55687;BME280;41911;52.362;4.978;2023-04-25T00:16:17;101128.51;;;6.42;49.84
55687;BME280;41911;52.362;4.978;2023-04-25T00:16:48;101124.85;;;6.15;50.47
55687;BME280;41911;52.362;4.978;2023-04-25T00:17:19;101127.60;;;6.11;50.69
55687;BME280;41911;52.362;4.978;2023-04-25T00:17:50;101126.57;;;5.72;50.70
55687;BME280;41911;52.362;4.978;2023-04-25T00:18:21;101128.88;;;5.85;51.16
55687;BME280;41911;52.362;4.978;2023-04-25T00:18:51;101130.01;;;5.81;50.67
55687;BME280;41911;52.362;4.978;2023-04-25T00:19:22;101129.70;;;5.87;50.82
55687;BME280;41911;52.362;4.978;2023-04-25T00:19:53;101129.87;;;6.09;50.27
55687;BME280;41911;52.362;4.978;2023-04-25T00:20:24;101130.14;;;5.79;50.83
55687;BME280;41911;52.362;4.978;2023-04-25T00:20:56;101131.67;;;6.14;50.37
55687;BME280;41911;52.362;4.978;2023-04-25T00:21:27;101131.28;;;5.97;50.55
55687;BME280;41911;52.362;4.978;2023-04-25T00:21:58;101133.18;;;6.15;49.99
55687;BME280;41911;52.362;4.978;2023-04-25T00:22:34;101132.33;;;5.80;50.60
55687;BME280;41911;52.362;4.978;2023-04-25T00:23:06;101131.59;;;5.45;51.11
55687;BME280;41911;52.362;4.978;2023-04-25T00:23:38;101130.34;;;5.36;51.20
55687;BME280;41911;52.362;4.978;2023-04-25T00:24:08;101131.99;;;5.44;50.92
55687;BME280;41911;52.362;4.978;2023-04-25T00:24:39;101132.31;;;5.72;50.98
55687;BME280;41911;52.362;4.978;2023-04-25T00:25:10;101131.17;;;5.90;50.31
55687;BME280;41911;52.362;4.978;2023-04-25T00:25:41;101131.22;;;5.96;50.55
55687;BME280;41911;52.362;4.978;2023-04-25T00:26:13;101133.71;;;5.97;50.53
55687;BME280;41911;52.362;4.978;2023-04-25T00:26:44;101133.52;;;6.04;50.45
55687;BME280;41911;52.362;4.978;2023-04-25T00:27:15;101132.97;;;6.52;49.49
55687;BME280;41911;52.362;4.978;2023-04-25T00:27:46;101132.29;;;6.25;49.71
55687;BME280;41911;52.362;4.978;2023-04-25T00:28:18;101134.03;;;6.17;49.38
55687;BME280;41911;52.362;4.978;2023-04-25T00:29:19;101134.42;;;6.22;49.34
55687;BME280;41911;52.362;4.978;2023-04-25T00:29:49;101135.85;;;5.99;49.08
55687;BME280;41911;52.362;4.978;2023-04-25T00:30:20;101136.02;;;6.21;49.58
55687;BME280;41911;52.362;4.978;2023-04-25T00:30:51;101137.95;;;6.35;48.89
55687;BME280;41911;52.362;4.978;2023-04-25T00:31:22;101136.30;;;6.37;49.28
55687;BME280;41911;52.362;4.978;2023-04-25T00:31:53;101135.78;;;6.26;49.17
55687;BME280;41911;52.362;4.978;2023-04-25T00:32:24;101138.47;;;6.23;49.35
55687;BME280;41911;52.362;4.978;2023-04-25T00:32:55;101135.46;;;6.09;49.66
55687;BME280;41911;52.362;4.978;2023-04-25T00:33:26;101136.82;;;6.25;49.37
55687;BME280;41911;52.362;4.978;2023-04-25T00:33:57;101135.50;;;6.07;49.46
55687;BME280;41911;52.362;4.978;2023-04-25T00:34:28;101136.35;;;6.39;49.55
55687;BME280;41911;52.362;4.978;2023-04-25T00:34:59;101140.97;;;6.15;49.53
55687;BME280;41911;52.362;4.978;2023-04-25T00:35:30;101136.78;;;5.70;49.92
55687;BME280;41911;52.362;4.978;2023-04-25T00:36:01;101138.63;;;5.57;50.16
55687;BME280;41911;52.362;4.978;2023-04-25T00:36:32;101138.80;;;6.14;50.18
55687;BME280;41911;52.362;4.978;2023-04-25T00:37:03;101139.75;;;6.42;48.70
55687;BME280;41911;52.362;4.978;2023-04-25T00:37:34;101138.28;;;5.93;49.65
55687;BME280;41911;52.362;4.978;2023-04-25T00:38:05;101137.59;;;5.92;49.43
55687;BME280;41911;52.362;4.978;2023-04-25T00:38:39;101138.26;;;5.84;49.03
55687;BME280;41911;52.362;4.978;2023-04-25T00:39:10;101137.94;;;6.27;49.45
55687;BME280;41911;52.362;4.978;2023-04-25T00:39:41;101136.81;;;6.44;49.52
55687;BME280;41911;52.362;4.978;2023-04-25T00:40:12;101138.53;;;6.22;49.10
55687;BME280;41911;52.362;4.978;2023-04-25T00:40:43;101136.64;;;6.47;49.35
55687;BME280;41911;52.362;4.978;2023-04-25T00:41:14;101137.12;;;5.89;49.43
55687;BME280;41911;52.362;4.978;2023-04-25T00:41:45;101138.39;;;6.13;49.00
55687;BME280;41911;52.362;4.978;2023-04-25T00:42:16;101139.21;;;6.28;48.93
55687;BME280;41911;52.362;4.978;2023-04-25T00:42:47;101140.58;;;6.48;48.50
55687;BME280;41911;52.362;4.978;2023-04-25T00:43:19;101142.88;;;6.14;49.16
55687;BME280;41911;52.362;4.978;2023-04-25T00:43:51;101142.40;;;5.90;49.09
55687;BME280;41911;52.362;4.978;2023-04-25T00:44:22;101142.47;;;5.85;49.48
55687;BME280;41911;52.362;4.978;2023-04-25T00:44:54;101145.77;;;5.69;49.27
55687;BME280;41911;52.362;4.978;2023-04-25T00:45:28;101144.80;;;6.25;49.41
55687;BME280;41911;52.362;4.978;2023-04-25T00:46:00;101143.18;;;5.97;49.90
55687;BME280;41911;52.362;4.978;2023-04-25T00:46:31;101144.56;;;6.15;49.57
55687;BME280;41911;52.362;4.978;2023-04-25T00:47:03;101145.35;;;6.63;48.96
55687;BME280;41911;52.362;4.978;2023-04-25T00:47:35;101144.73;;;6.10;49.16
55687;BME280;41911;52.362;4.978;2023-04-25T00:48:06;101145.95;;;6.37;49.72
55687;BME280;41911;52.362;4.978;2023-04-25T00:48:37;101144.65;;;6.40;49.98
55687;BME280;41911;52.362;4.978;2023-04-25T00:49:09;101146.50;;;6.45;49.54
55687;BME280;41911;52.362;4.978;2023-04-25T00:49:40;101146.07;;;6.04;48.49
55687;BME280;41911;52.362;4.978;2023-04-25T00:50:12;101148.56;;;6.34;48.90
55687;BME280;41911;52.362;4.978;2023-04-25T00:50:49;101145.09;;;6.21;49.45
55687;BME280;41911;52.362;4.978;2023-04-25T00:51:22;101147.11;;;6.39;49.13
55687;BME280;41911;52.362;4.978;2023-04-25T00:51:53;101145.43;;;6.18;49.34
55687;BME280;41911;52.362;4.978;2023-04-25T00:52:24;101145.86;;;6.36;48.97
55687;BME280;41911;52.362;4.978;2023-04-25T00:52:55;101143.83;;;5.83;48.78
55687;BME280;41911;52.362;4.978;2023-04-25T00:53:28;101144.95;;;6.12;49.10
55687;BME280;41911;52.362;4.978;2023-04-25T00:53:59;101144.86;;;5.73;49.31
55687;BME280;41911;52.362;4.978;2023-04-25T00:54:31;101145.40;;;6.36;49.38
55687;BME280;41911;52.362;4.978;2023-04-25T00:55:32;101146.04;;;5.82;49.47
55687;BME280;41911;52.362;4.978;2023-04-25T00:56:03;101146.54;;;6.04;49.18
55687;BME280;41911;52.362;4.978;2023-04-25T00:56:34;101147.06;;;5.69;48.72
55687;BME280;41911;52.362;4.978;2023-04-25T00:57:05;101147.21;;;5.97;48.96
55687;BME280;41911;52.362;4.978;2023-04-25T00:57:37;101146.79;;;6.16;49.23
55687;BME280;41911;52.362;4.978;2023-04-25T00:58:08;101148.30;;;5.73;49.28
55687;BME280;41911;52.362;4.978;2023-04-25T00:58:40;101149.59;;;5.70;49.08
55687;BME280;41911;52.362;4.978;2023-04-25T00:59:12;101147.86;;;6.14;49.61
55687;BME280;41911;52.362;4.978;2023-04-25T00:59:45;101148.52;;;5.98;49.20
55687;BME280;41911;52.362;4.978;2023-04-25T01:00:17;101148.34;;;5.95;49.33
55687;BME280;41911;52.362;4.978;2023-04-25T01:00:50;101150.98;;;5.63;49.02
55687;BME280;41911;52.362;4.978;2023-04-25T01:01:23;101151.36;;;5.65;49.25
55687;BME280;41911;52.362;4.978;2023-04-25T01:01:54;101152.04;;;6.40;48.96
55687;BME280;41911;52.362;4.978;2023-04-25T01:02:25;101150.39;;;5.94;48.58
55687;BME280;41911;52.362;4.978;2023-04-25T01:02:56;101147.59;;;6.69;48.53
55687;BME280;41911;52.362;4.978;2023-04-25T01:03:28;101150.35;;;6.39;48.13
55687;BME280;41911;52.362;4.978;2023-04-25T01:04:01;101151.87;;;6.00;48.45
55687;BME280;41911;52.362;4.978;2023-04-25T01:04:31;101152.37;;;5.89;49.27
55687;BME280;41911;52.362;4.978;2023-04-25T01:05:03;101149.70;;;5.98;48.64
55687;BME280;41911;52.362;4.978;2023-04-25T01:05:34;101150.78;;;6.24;48.87
55687;BME280;41911;52.362;4.978;2023-04-25T01:06:05;101149.87;;;5.79;49.02
55687;BME280;41911;52.362;4.978;2023-04-25T01:06:36;101149.65;;;6.03;48.58
55687;BME280;41911;52.362;4.978;2023-04-25T01:07:09;101149.78;;;5.98;49.22
55687;BME280;41911;52.362;4.978;2023-04-25T01:07:40;101148.71;;;5.74;48.95
55687;BME280;41911;52.362;4.978;2023-04-25T01:08:12;101148.58;;;5.89;48.57
55687;BME280;41911;52.362;4.978;2023-04-25T01:08:43;101148.95;;;5.75;48.81
55687;BME280;41911;52.362;4.978;2023-04-25T01:09:14;101148.36;;;5.90;48.57
55687;BME280;41911;52.362;4.978;2023-04-25T01:09:45;101147.92;;;5.67;49.23
55687;BME280;41911;52.362;4.978;2023-04-25T01:10:17;101146.38;;;5.46;49.20
55687;BME280;41911;52.362;4.978;2023-04-25T01:10:48;101145.84;;;5.99;48.80
55687;BME280;41911;52.362;4.978;2023-04-25T01:11:19;101147.91;;;5.75;49.10
55687;BME280;41911;52.362;4.978;2023-04-25T01:11:50;101147.39;;;5.74;49.06
55687;BME280;41911;52.362;4.978;2023-04-25T01:12:23;101149.14;;;6.34;49.12
55687;BME280;41911;52.362;4.978;2023-04-25T01:12:54;101149.05;;;5.62;48.99
55687;BME280;41911;52.362;4.978;2023-04-25T01:13:25;101150.83;;;6.14;48.52
55687;BME280;41911;52.362;4.978;2023-04-25T01:13:56;101151.77;;;6.20;48.59
55687;BME280;41911;52.362;4.978;2023-04-25T01:14:27;101151.07;;;6.36;48.77
55687;BME280;41911;52.362;4.978;2023-04-25T01:14:58;101149.44;;;6.03;48.29
55687;BME280;41911;52.362;4.978;2023-04-25T01:15:29;101149.03;;;5.93;48.49
55687;BME280;41911;52.362;4.978;2023-04-25T01:16:01;101150.31;;;6.64;48.45
55687;BME280;41911;52.362;4.978;2023-04-25T01:16:32;101149.26;;;6.07;48.69
55687;BME280;41911;52.362;4.978;2023-04-25T01:17:03;101151.76;;;6.60;48.46
55687;BME280;41911;52.362;4.978;2023-04-25T01:17:35;101150.78;;;6.15;47.74
55687;BME280;41911;52.362;4.978;2023-04-25T01:18:06;101152.36;;;6.15;47.78
55687;BME280;41911;52.362;4.978;2023-04-25T01:18:39;101153.27;;;5.81;48.46
55687;BME280;41911;52.362;4.978;2023-04-25T01:19:11;101151.02;;;6.07;48.43
55687;BME280;41911;52.362;4.978;2023-04-25T01:23:32;101157.98;;;6.30;48.15
55687;BME280;41911;52.362;4.978;2023-04-25T01:24:04;101157.65;;;6.49;48.20
55687;BME280;41911;52.362;4.978;2023-04-25T01:24:37;101159.13;;;6.09;48.33
55687;BME280;41911;52.362;4.978;2023-04-25T01:25:08;101159.62;;;6.37;48.54
55687;BME280;41911;52.362;4.978;2023-04-25T01:25:39;101160.65;;;6.08;48.65
55687;BME280;41911;52.362;4.978;2023-04-25T01:26:11;101161.00;;;6.23;48.52
55687;BME280;41911;52.362;4.978;2023-04-25T01:26:43;101160.30;;;6.53;48.53
55687;BME280;41911;52.362;4.978;2023-04-25T01:27:14;101160.75;;;6.20;48.59
55687;BME280;41911;52.362;4.978;2023-04-25T01:27:46;101162.57;;;6.49;47.85
55687;BME280;41911;52.362;4.978;2023-04-25T01:28:17;101160.87;;;5.76;48.97
55687;BME280;41911;52.362;4.978;2023-04-25T01:28:49;101161.46;;;6.12;48.79
55687;BME280;41911;52.362;4.978;2023-04-25T01:29:20;101163.63;;;6.33;48.26
55687;BME280;41911;52.362;4.978;2023-04-25T01:29:52;101163.14;;;6.04;48.72
55687;BME280;41911;52.362;4.978;2023-04-25T01:30:25;101163.95;;;5.62;49.34
55687;BME280;41911;52.362;4.978;2023-04-25T01:30:57;101165.05;;;5.75;49.29
55687;BME280;41911;52.362;4.978;2023-04-25T01:31:29;101166.08;;;6.27;48.71
55687;BME280;41911;52.362;4.978;2023-04-25T01:32:01;101167.56;;;6.11;47.64
55687;BME280;41911;52.362;4.978;2023-04-25T01:32:33;101168.27;;;6.39;47.97
55687;BME280;41911;52.362;4.978;2023-04-25T01:33:04;101165.85;;;6.30;48.45
55687;BME280;41911;52.362;4.978;2023-04-25T01:33:36;101167.37;;;5.96;48.99
55687;BME280;41911;52.362;4.978;2023-04-25T01:34:07;101166.47;;;5.96;48.66
55687;BME280;41911;52.362;4.978;2023-04-25T01:34:38;101167.24;;;6.12;48.27
55687;BME280;41911;52.362;4.978;2023-04-25T01:35:11;101166.40;;;6.09;48.42
55687;BME280;41911;52.362;4.978;2023-04-25T01:35:42;101163.66;;;6.33;47.94
55687;BME280;41911;52.362;4.978;2023-04-25T01:36:14;101166.43;;;6.27;48.34
55687;BME280;41911;52.362;4.978;2023-04-25T01:36:48;101167.18;;;6.28;48.40
55687;BME280;41911;52.362;4.978;2023-04-25T01:37:19;101164.45;;;6.17;48.31
55687;BME280;41911;52.362;4.978;2023-04-25T01:37:51;101167.34;;;6.30;48.66
55687;BME280;41911;52.362;4.978;2023-04-25T01:38:22;101165.16;;;6.12;47.65
55687;BME280;41911;52.362;4.978;2023-04-25T01:38:53;101165.35;;;5.92;48.30
55687;BME280;41911;52.362;4.978;2023-04-25T01:39:25;101165.51;;;6.10;48.15
55687;BME280;41911;52.362;4.978;2023-04-25T01:39:56;101164.55;;;6.42;47.76
55687;BME280;41911;52.362;4.978;2023-04-25T01:40:27;101166.39;;;5.95;48.20
55687;BME280;41911;52.362;4.978;2023-04-25T01:40:58;101167.27;;;6.62;48.04
55687;BME280;41911;52.362;4.978;2023-04-25T01:41:29;101164.97;;;6.90;47.38
55687;BME280;41911;52.362;4.978;2023-04-25T01:42:00;101166.18;;;6.56;47.86
55687;BME280;41911;52.362;4.978;2023-04-25T01:42:32;101164.08;;;5.92;48.48
55687;BME280;41911;52.362;4.978;2023-04-25T01:43:03;101165.09;;;6.08;48.00
55687;BME280;41911;52.362;4.978;2023-04-25T01:43:34;101163.63;;;6.28;48.14
55687;BME280;41911;52.362;4.978;2023-04-25T01:44:05;101163.87;;;6.04;48.25
55687;BME280;41911;52.362;4.978;2023-04-25T01:44:36;101165.75;;;5.63;48.27
55687;BME280;41911;52.362;4.978;2023-04-25T01:45:09;101163.33;;;5.73;48.40
55687;BME280;41911;52.362;4.978;2023-04-25T01:45:40;101161.56;;;5.85;47.97
55687;BME280;41911;52.362;4.978;2023-04-25T01:46:12;101163.73;;;6.54;47.85
55687;BME280;41911;52.362;4.978;2023-04-25T01:46:43;101167.55;;;5.02;49.65
55687;BME280;41911;52.362;4.978;2023-04-25T01:47:14;101167.24;;;5.72;49.75
55687;BME280;41911;52.362;4.978;2023-04-25T01:47:45;101168.09;;;6.01;49.28
55687;BME280;41911;52.362;4.978;2023-04-25T01:48:16;101168.81;;;5.67;49.50
55687;BME280;41911;52.362;4.978;2023-04-25T01:48:48;101169.76;;;5.28;49.52
55687;BME280;41911;52.362;4.978;2023-04-25T01:49:19;101171.82;;;5.57;49.97
55687;BME280;41911;52.362;4.978;2023-04-25T01:49:50;101171.63;;;5.94;49.73
55687;BME280;41911;52.362;4.978;2023-04-25T01:50:21;101171.14;;;6.26;49.21
55687;BME280;41911;52.362;4.978;2023-04-25T01:50:52;101171.37;;;6.30;48.89
55687;BME280;41911;52.362;4.978;2023-04-25T01:51:23;101173.51;;;6.26;48.28
55687;BME280;41911;52.362;4.978;2023-04-25T01:51:54;101169.71;;;6.51;47.78
55687;BME280;41911;52.362;4.978;2023-04-25T01:52:25;101173.75;;;5.70;48.78
55687;BME280;41911;52.362;4.978;2023-04-25T01:52:56;101171.78;;;6.08;49.06
55687;BME280;41911;52.362;4.978;2023-04-25T01:53:28;101173.35;;;6.07;49.33
55687;BME280;41911;52.362;4.978;2023-04-25T01:53:59;101172.96;;;5.82;49.08
55687;BME280;41911;52.362;4.978;2023-04-25T01:54:30;101173.29;;;6.26;49.03
55687;BME280;41911;52.362;4.978;2023-04-25T01:55:02;101172.36;;;6.30;48.59
55687;BME280;41911;52.362;4.978;2023-04-25T01:55:33;101171.90;;;5.89;49.35
55687;BME280;41911;52.362;4.978;2023-04-25T01:56:05;101172.13;;;5.92;49.76
55687;BME280;41911;52.362;4.978;2023-04-25T01:56:37;101172.21;;;5.88;49.26
55687;BME280;41911;52.362;4.978;2023-04-25T01:57:08;101172.71;;;6.12;49.63
55687;BME280;41911;52.362;4.978;2023-04-25T01:57:39;101173.14;;;6.16;49.54
55687;BME280;41911;52.362;4.978;2023-04-25T01:58:10;101170.61;;;6.22;49.40
55687;BME280;41911;52.362;4.978;2023-04-25T01:58:41;101171.18;;;5.69;49.47
55687;BME280;41911;52.362;4.978;2023-04-25T01:59:12;101174.85;;;6.22;48.84
55687;BME280;41911;52.362;4.978;2023-04-25T02:00:14;101175.52;;;6.58;48.72
55687;BME280;41911;52.362;4.978;2023-04-25T02:00:45;101177.19;;;6.36;48.80
55687;BME280;41911;52.362;4.978;2023-04-25T02:01:16;101180.32;;;6.26;48.85
55687;BME280;41911;52.362;4.978;2023-04-25T02:01:47;101179.00;;;6.42;48.23
55687;BME280;41911;52.362;4.978;2023-04-25T02:02:18;101179.61;;;6.62;47.97
55687;BME280;41911;52.362;4.978;2023-04-25T02:02:50;101181.25;;;5.97;48.70
55687;BME280;41911;52.362;4.978;2023-04-25T02:03:21;101176.95;;;5.72;49.14
55687;BME280;41911;52.362;4.978;2023-04-25T02:03:52;101175.78;;;5.90;49.06
55687;BME280;41911;52.362;4.978;2023-04-25T02:04:22;101175.52;;;5.82;49.36
55687;BME280;41911;52.362;4.978;2023-04-25T02:04:53;101175.96;;;5.91;49.13
55687;BME280;41911;52.362;4.978;2023-04-25T02:05:24;101180.49;;;5.40;50.17
55687;BME280;41911;52.362;4.978;2023-04-25T02:05:55;101179.87;;;5.39;49.93
55687;BME280;41911;52.362;4.978;2023-04-25T02:06:26;101179.67;;;5.76;49.46
55687;BME280;41911;52.362;4.978;2023-04-25T02:06:57;101178.47;;;5.98;49.39
55687;BME280;41911;52.362;4.978;2023-04-25T02:07:28;101179.59;;;6.07;49.28
55687;BME280;41911;52.362;4.978;2023-04-25T02:07:59;101179.97;;;6.03;49.39
55687;BME280;41911;52.362;4.978;2023-04-25T02:08:30;101178.89;;;5.86;49.26
55687;BME280;41911;52.362;4.978;2023-04-25T02:09:01;101177.95;;;6.24;48.43
55687;BME280;41911;52.362;4.978;2023-04-25T02:09:32;101176.32;;;5.93;49.03
55687;BME280;41911;52.362;4.978;2023-04-25T02:10:04;101177.93;;;6.04;48.20
55687;BME280;41911;52.362;4.978;2023-04-25T02:10:36;101176.49;;;6.25;48.39
55687;BME280;41911;52.362;4.978;2023-04-25T02:11:07;101178.15;;;6.09;48.11
55687;BME280;41911;52.362;4.978;2023-04-25T02:11:38;101176.93;;;6.31;48.43
55687;BME280;41911;52.362;4.978;2023-04-25T02:12:10;101179.85;;;6.10;48.25
55687;BME280;41911;52.362;4.978;2023-04-25T02:12:41;101181.41;;;6.52;47.44
55687;BME280;41911;52.362;4.978;2023-04-25T02:13:12;101181.62;;;6.48;48.17
55687;BME280;41911;52.362;4.978;2023-04-25T02:13:43;101180.10;;;6.19;47.62
55687;BME280;41911;52.362;4.978;2023-04-25T02:14:14;101182.00;;;6.28;48.37
55687;BME280;41911;52.362;4.978;2023-04-25T02:14:45;101183.03;;;6.10;47.89
55687;BME280;41911;52.362;4.978;2023-04-25T02:15:16;101182.52;;;6.50;47.90
55687;BME280;41911;52.362;4.978;2023-04-25T02:15:47;101183.31;;;6.47;48.16
55687;BME280;41911;52.362;4.978;2023-04-25T02:16:18;101184.39;;;6.31;47.42
55687;BME280;41911;52.362;4.978;2023-04-25T02:16:50;101184.68;;;6.30;47.93
55687;BME280;41911;52.362;4.978;2023-04-25T02:17:20;101181.38;;;6.02;47.97
55687;BME280;41911;52.362;4.978;2023-04-25T02:17:52;101180.51;;;5.73;48.10
55687;BME280;41911;52.362;4.978;2023-04-25T02:18:22;101179.97;;;6.47;47.59
55687;BME280;41911;52.362;4.978;2023-04-25T02:18:53;101181.60;;;6.49;47.78
55687;BME280;41911;52.362;4.978;2023-04-25T02:19:24;101180.90;;;6.10;48.80
55687;BME280;41911;52.362;4.978;2023-04-25T02:19:55;101180.63;;;6.29;48.86
55687;BME280;41911;52.362;4.978;2023-04-25T02:20:28;101181.56;;;6.38;48.28
55687;BME280;41911;52.362;4.978;2023-04-25T02:20:59;101181.06;;;6.09;48.35
55687;BME280;41911;52.362;4.978;2023-04-25T02:21:30;101183.72;;;6.57;48.46
55687;BME280;41911;52.362;4.978;2023-04-25T02:22:01;101181.69;;;6.20;48.27
55687;BME280;41911;52.362;4.978;2023-04-25T02:22:32;101180.22;;;6.12;48.51
55687;BME280;41911;52.362;4.978;2023-04-25T02:23:03;101180.28;;;6.30;48.07
55687;BME280;41911;52.362;4.978;2023-04-25T02:23:35;101180.34;;;5.93;48.48
55687;BME280;41911;52.362;4.978;2023-04-25T02:24:07;101177.28;;;6.48;48.48
55687;BME280;41911;52.362;4.978;2023-04-25T02:24:38;101177.90;;;6.40;47.75
55687;BME280;41911;52.362;4.978;2023-04-25T02:25:10;101177.44;;;6.08;47.86
55687;BME280;41911;52.362;4.978;2023-04-25T02:25:42;101178.39;;;6.09;47.53
55687;BME280;41911;52.362;4.978;2023-04-25T02:26:13;101178.69;;;6.05;48.02
55687;BME280;41911;52.362;4.978;2023-04-25T02:26:44;101181.33;;;5.72;48.26
55687;BME280;41911;52.362;4.978;2023-04-25T02:27:15;101179.34;;;5.88;48.55
55687;BME280;41911;52.362;4.978;2023-04-25T02:27:46;101182.18;;;5.82;47.82
55687;BME280;41911;52.362;4.978;2023-04-25T02:28:17;101180.78;;;6.31;48.24
55687;BME280;41911;52.362;4.978;2023-04-25T02:28:48;101179.88;;;5.80;47.31
55687;BME280;41911;52.362;4.978;2023-04-25T02:29:20;101183.59;;;5.91;47.72
55687;BME280;41911;52.362;4.978;2023-04-25T02:29:51;101184.62;;;6.12;47.99
55687;BME280;41911;52.362;4.978;2023-04-25T02:30:23;101185.68;;;6.38;48.02
55687;BME280;41911;52.362;4.978;2023-04-25T02:30:54;101184.11;;;5.89;47.66
55687;BME280;41911;52.362;4.978;2023-04-25T02:31:25;101187.16;;;6.21;47.49
55687;BME280;41911;52.362;4.978;2023-04-25T02:31:56;101187.98;;;6.05;46.72
55687;BME280;41911;52.362;4.978;2023-04-25T02:32:27;101188.31;;;5.79;47.24
55687;BME280;41911;52.362;4.978;2023-04-25T02:32:59;101190.08;;;6.08;47.49
55687;BME280;41911;52.362;4.978;2023-04-25T02:33:30;101190.53;;;5.84;47.32
55687;BME280;41911;52.362;4.978;2023-04-25T02:34:07;101189.35;;;5.99;46.78
55687;BME280;41911;52.362;4.978;2023-04-25T02:34:39;101191.37;;;6.04;47.28
55687;BME280;41911;52.362;4.978;2023-04-25T02:35:10;101194.03;;;5.64;47.68
55687;BME280;41911;52.362;4.978;2023-04-25T02:35:41;101194.75;;;5.90;47.37
55687;BME280;41911;52.362;4.978;2023-04-25T02:36:11;101194.73;;;5.77;47.19
55687;BME280;41911;52.362;4.978;2023-04-25T02:36:42;101198.23;;;6.55;47.55
55687;BME280;41911;52.362;4.978;2023-04-25T02:37:14;101197.05;;;5.92;46.73
55687;BME280;41911;52.362;4.978;2023-04-25T02:37:45;101202.27;;;5.50;48.06
55687;BME280;41911;52.362;4.978;2023-04-25T02:38:16;101200.87;;;6.20;47.87
55687;BME280;41911;52.362;4.978;2023-04-25T02:38:47;101198.53;;;5.25;48.97
55687;BME280;41911;52.362;4.978;2023-04-25T02:39:18;101200.68;;;4.93;48.27
55687;BME280;41911;52.362;4.978;2023-04-25T02:39:50;101204.20;;;5.50;48.75
55687;BME280;41911;52.362;4.978;2023-04-25T02:40:21;101203.96;;;5.18;49.17
55687;BME280;41911;52.362;4.978;2023-04-25T02:40:52;101212.94;;;4.60;48.96
55687;BME280;41911;52.362;4.978;2023-04-25T02:41:23;101207.10;;;5.04;49.29
55687;BME280;41911;52.362;4.978;2023-04-25T02:41:54;101204.64;;;5.33;48.52
55687;BME280;41911;52.362;4.978;2023-04-25T02:42:25;101204.70;;;5.60;48.69
55687;BME280;41911;52.362;4.978;2023-04-25T02:42:56;101205.09;;;5.15;48.93
55687;BME280;41911;52.362;4.978;2023-04-25T02:43:27;101199.91;;;5.96;48.61
55687;BME280;41911;52.362;4.978;2023-04-25T02:43:58;101211.24;;;4.99;50.35
55687;BME280;41911;52.362;4.978;2023-04-25T02:44:29;101208.13;;;4.60;49.74
55687;BME280;41911;52.362;4.978;2023-04-25T02:45:00;101207.54;;;4.71;49.91
55687;BME280;41911;52.362;4.978;2023-04-25T02:45:31;101204.54;;;5.18;49.79
55687;BME280;41911;52.362;4.978;2023-04-25T02:46:03;101211.08;;;5.00;49.16
55687;BME280;41911;52.362;4.978;2023-04-25T02:46:34;101206.56;;;5.14;50.27
55687;BME280;41911;52.362;4.978;2023-04-25T02:47:05;101207.63;;;5.69;49.43
55687;BME280;41911;52.362;4.978;2023-04-25T02:47:37;101207.79;;;4.67;50.36
55687;BME280;41911;52.362;4.978;2023-04-25T02:48:08;101209.11;;;3.88;51.86
55687;BME280;41911;52.362;4.978;2023-04-25T02:48:39;101211.33;;;3.95;52.31
55687;BME280;41911;52.362;4.978;2023-04-25T02:49:10;101209.63;;;4.72;50.84
55687;BME280;41911;52.362;4.978;2023-04-25T02:49:41;101206.89;;;4.29;51.17
55687;BME280;41911;52.362;4.978;2023-04-25T02:50:12;101209.04;;;4.53;50.56
55687;BME280;41911;52.362;4.978;2023-04-25T02:50:43;101206.15;;;4.28;51.01
55687;BME280;41911;52.362;4.978;2023-04-25T02:51:14;101209.16;;;3.66;52.30